Time,TemperatureF,DewpointF,PressureIn,WindDirection,WindDirectionDegrees,WindSpeedMPH,WindSpeedGustMPH,Humidity,HourlyPrecipIn,Conditions,Clouds,dailyrainin,SoftwareType,DateUTC
2013-03-29 00:02:00,44.0,26.0,30.06,SE,146,12.0,-999.0,49,-99.99,,,-99.99,,2013-03-29 06:02:00,
2013-03-29 00:12:00,44.0,25.0,30.06,SE,146,12.0,-999.0,48,-99.99,,,-99.99,,2013-03-29 06:12:00,
2013-03-29 00:23:00,44.0,26.0,30.05,SSE,167,13.0,-999.0,49,-99.99,,,-99.99,,2013-03-29 06:23:00,
2013-03-29 00:32:00,44.0,26.0,30.07,SSE,165,12.0,-999.0,49,-99.99,,,-99.99,,2013-03-29 06:32:00,
2013-03-29 00:42:00,44.0,26.0,30.06,SSE,164,13.0,-999.0,50,-99.99,,,-99.99,,2013-03-29 06:42:00,
2013-03-29 00:52:00,44.0,26.0,30.04,SSE,161,11.0,-999.0,50,-99.99,,,-99.99,,2013-03-29 06:52:00,
2013-03-29 01:03:00,44.0,26.0,30.06,SSE,164,12.0,-999.0,50,-99.99,,,-99.99,,2013-03-29 07:03:00,
2013-03-29 01:12:00,44.0,26.0,30.06,SSE,168,12.0,-999.0,50,-99.99,,,-99.99,,2013-03-29 07:12:00,
2013-03-29 01:22:00,43.0,26.0,30.06,South,177,12.0,-999.0,51,-99.99,,,-99.99,,2013-03-29 07:22:00,
2013-03-29 01:32:00,42.0,26.0,30.04,South,185,12.0,-999.0,53,-99.99,,,-99.99,,2013-03-29 07:32:00,
2013-03-29 01:42:00,41.0,26.0,30.06,South,191,11.0,-999.0,55,-99.99,,,-99.99,,2013-03-29 07:42:00,
2013-03-29 01:52:00,41.0,26.0,30.08,South,188,13.0,-999.0,56,-99.99,,,-99.99,,2013-03-29 07:52:00,
2013-03-29 02:02:00,41.0,26.0,30.06,South,179,13.0,-999.0,55,-99.99,,,-99.99,,2013-03-29 08:02:00,
2013-03-29 02:12:00,41.0,26.0,30.05,South,181,11.0,-999.0,55,-99.99,,,-99.99,,2013-03-29 08:12:00,
2013-03-29 02:22:00,40.0,26.0,30.06,South,191,13.0,-999.0,56,-99.99,,,-99.99,,2013-03-29 08:22:00,
2013-03-29 02:32:00,40.0,26.0,30.06,South,191,13.0,-999.0,56,-99.99,,,-99.99,,2013-03-29 08:32:00,
2013-03-29 02:42:00,40.0,26.0,30.07,South,183,13.0,-999.0,56,-99.99,,,-99.99,,2013-03-29 08:42:00,
2013-03-29 02:53:00,40.0,26.0,30.04,SSW,192,10.0,-999.0,56,-99.99,,,-99.99,,2013-03-29 08:53:00,
2013-03-29 03:02:00,40.0,26.0,30.05,SSW,194,9.0,-999.0,57,-99.99,,,-99.99,,2013-03-29 09:02:00,
2013-03-29 03:13:00,40.0,25.0,30.08,South,189,7.0,-999.0,56,-99.99,,,-99.99,,2013-03-29 09:13:00,
2013-03-29 03:22:00,41.0,25.0,30.05,SSW,204,6.0,-999.0,53,-99.99,,,-99.99,,2013-03-29 09:22:00,
2013-03-29 03:33:00,41.0,25.0,30.06,SSW,201,6.0,-999.0,52,-99.99,,,-99.99,,2013-03-29 09:33:00,
2013-03-29 03:42:00,42.0,25.0,30.06,SSW,200,7.0,-999.0,52,-99.99,,,-99.99,,2013-03-29 09:42:00,
2013-03-29 03:52:00,42.0,25.0,30.06,South,181,8.0,-999.0,52,-99.99,,,-99.99,,2013-03-29 09:52:00,
2013-03-29 04:03:00,39.0,26.0,30.04,SSE,151,8.0,-999.0,58,-99.99,,,-99.99,,2013-03-29 10:03:00,
2013-03-29 04:12:00,37.0,26.0,30.04,SSE,164,12.0,-999.0,63,-99.99,,,-99.99,,2013-03-29 10:12:00,
2013-03-29 04:23:00,37.0,26.0,30.04,South,174,12.0,-999.0,63,-99.99,,,-99.99,,2013-03-29 10:23:00,
2013-03-29 04:33:00,37.0,26.0,30.04,SSW,198,9.0,-999.0,64,-99.99,,,-99.99,,2013-03-29 10:33:00,
2013-03-29 04:42:00,36.0,26.0,30.06,South,184,11.0,-999.0,65,-99.99,,,-99.99,,2013-03-29 10:42:00,
2013-03-29 04:52:00,37.0,25.0,30.03,SSW,192,10.0,-999.0,62,-99.99,,,-99.99,,2013-03-29 10:52:00,
2013-03-29 05:03:00,38.0,25.0,30.06,SSW,208,9.0,-999.0,60,-99.99,,,-99.99,,2013-03-29 11:03:00,
2013-03-29 05:12:00,38.0,25.0,30.04,SW,223,9.0,-999.0,58,-99.99,,,-99.99,,2013-03-29 11:12:00,
2013-03-29 05:23:00,38.0,25.0,30.04,SW,225,7.0,-999.0,60,-99.99,,,-99.99,,2013-03-29 11:23:00,
2013-03-29 05:32:00,38.0,25.0,30.03,SW,232,7.0,-999.0,59,-99.99,,,-99.99,,2013-03-29 11:32:00,
2013-03-29 05:42:00,39.0,26.0,30.03,WSW,246,6.0,-999.0,58,-99.99,,,-99.99,,2013-03-29 11:42:00,
2013-03-29 05:52:00,39.0,25.0,30.04,SW,227,4.0,-999.0,57,-99.99,,,-99.99,,2013-03-29 11:52:00,
2013-03-29 06:03:00,40.0,25.0,30.04,SW,231,5.0,-999.0,55,-99.99,,,-99.99,,2013-03-29 12:03:00,
2013-03-29 06:12:00,40.0,26.0,30.04,SW,236,4.0,-999.0,56,-99.99,,,-99.99,,2013-03-29 12:12:00,
2013-03-29 06:22:00,40.0,25.0,30.03,WSW,240,6.0,-999.0,55,-99.99,,,-99.99,,2013-03-29 12:22:00,
2013-03-29 06:32:00,40.0,25.0,30.03,SW,231,4.0,-999.0,54,-99.99,,,-99.99,,2013-03-29 12:32:00,
2013-03-29 06:42:00,40.0,25.0,30.03,SW,232,4.0,-999.0,55,-99.99,,,-99.99,,2013-03-29 12:42:00,
2013-03-29 06:52:00,40.0,25.0,30.04,SW,227,5.0,-999.0,55,-99.99,,,-99.99,,2013-03-29 12:52:00,
2013-03-29 07:03:00,40.0,25.0,30.03,SW,224,6.0,-999.0,55,-99.99,,,-99.99,,2013-03-29 13:03:00,
2013-03-29 07:12:00,40.0,25.0,30.03,SW,221,7.0,-999.0,55,-99.99,,,-99.99,,2013-03-29 13:12:00,
2013-03-29 07:22:00,39.0,25.0,30.03,SW,214,7.0,-999.0,56,-99.99,,,-99.99,,2013-03-29 13:22:00,
2013-03-29 07:32:00,39.0,26.0,30.02,SSW,197,8.0,-999.0,58,-99.99,,,-99.99,,2013-03-29 13:32:00,
2013-03-29 07:42:00,39.0,25.0,30.01,SW,214,10.0,-999.0,58,-99.99,,,-99.99,,2013-03-29 13:42:00,
2013-03-29 07:52:00,40.0,25.0,30.04,SSW,211,8.0,-999.0,56,-99.99,,,-99.99,,2013-03-29 13:52:00,
2013-03-29 08:03:00,40.0,25.0,30.05,SSW,205,7.0,-999.0,55,-99.99,,,-99.99,,2013-03-29 14:03:00,
2013-03-29 08:12:00,41.0,27.0,30.04,SSW,194,6.0,-999.0,57,-99.99,,,-99.99,,2013-03-29 14:12:00,
2013-03-29 08:22:00,43.0,27.0,30.03,SSE,161,3.0,-999.0,53,-99.99,,,-99.99,,2013-03-29 14:22:00,
2013-03-29 08:32:00,46.0,27.0,30.02,SSE,151,2.0,-999.0,47,-99.99,,,-99.99,,2013-03-29 14:32:00,
2013-03-29 08:42:00,46.0,26.0,30.03,SSE,167,3.0,-999.0,45,-99.99,,,-99.99,,2013-03-29 14:42:00,
2013-03-29 08:52:00,46.0,25.0,30.03,South,182,6.0,-999.0,43,-99.99,,,-99.99,,2013-03-29 14:52:00,
2013-03-29 09:02:00,45.0,28.0,30.04,South,179,7.0,-999.0,51,-99.99,,,-99.99,,2013-03-29 15:02:00,
2013-03-29 09:12:00,46.0,26.0,30.03,South,189,6.0,-999.0,46,-99.99,,,-99.99,,2013-03-29 15:12:00,
2013-03-29 09:22:00,46.0,27.0,30.03,South,186,8.0,-999.0,47,-99.99,,,-99.99,,2013-03-29 15:22:00,
2013-03-29 09:33:00,47.0,27.0,30.03,SSW,198,9.0,-999.0,47,-99.99,,,-99.99,,2013-03-29 15:33:00,
2013-03-29 09:43:00,47.0,28.0,30.04,South,175,5.0,-999.0,46,-99.99,,,-99.99,,2013-03-29 15:43:00,
2013-03-29 09:52:00,48.0,29.0,30.01,South,176,5.0,-999.0,46,-99.99,,,-99.99,,2013-03-29 15:52:00,
2013-03-29 10:03:00,50.0,28.0,30.01,SW,218,6.0,-999.0,42,-99.99,,,-99.99,,2013-03-29 16:03:00,
2013-03-29 10:13:00,51.0,26.0,30.02,SW,231,6.0,-999.0,37,-99.99,,,-99.99,,2013-03-29 16:13:00,
2013-03-29 10:23:00,52.0,26.0,30.00,SW,225,4.0,-999.0,36,-99.99,,,-99.99,,2013-03-29 16:23:00,
2013-03-29 10:32:00,53.0,25.0,30.01,SW,234,4.0,-999.0,34,-99.99,,,-99.99,,2013-03-29 16:32:00,
2013-03-29 10:42:00,54.0,24.0,30.00,SSW,212,8.0,-999.0,31,-99.99,,,-99.99,,2013-03-29 16:42:00,
2013-03-29 10:52:00,55.0,25.0,30.00,SSW,192,6.0,-999.0,31,-99.99,,,-99.99,,2013-03-29 16:52:00,
2013-03-29 11:03:00,56.0,25.0,29.99,SW,221,9.0,-999.0,29,-99.99,,,-99.99,,2013-03-29 17:03:00,
2013-03-29 11:12:00,57.0,25.0,30.00,SW,234,7.0,-999.0,29,-99.99,,,-99.99,,2013-03-29 17:12:00,
2013-03-29 11:22:00,57.0,25.0,29.99,SSW,208,8.0,-999.0,29,-99.99,,,-99.99,,2013-03-29 17:22:00,
2013-03-29 11:33:00,57.0,25.0,29.99,SW,220,6.0,-999.0,28,-99.99,,,-99.99,,2013-03-29 17:33:00,
2013-03-29 11:43:00,58.0,26.0,29.98,SSW,203,9.0,-999.0,29,-99.99,,,-99.99,,2013-03-29 17:43:00,
2013-03-29 11:52:00,59.0,27.0,29.98,SSW,200,11.0,-999.0,29,-99.99,,,-99.99,,2013-03-29 17:52:00,
2013-03-29 12:02:00,59.0,27.0,29.98,South,189,3.0,-999.0,29,-99.99,,,-99.99,,2013-03-29 18:02:00,
2013-03-29 12:12:00,60.0,27.0,29.98,SE,143,5.0,-999.0,28,-99.99,,,-99.99,,2013-03-29 18:12:00,
2013-03-29 12:23:00,60.0,27.0,29.97,SE,145,4.0,-999.0,28,-99.99,,,-99.99,,2013-03-29 18:23:00,
2013-03-29 12:32:00,61.0,28.0,29.98,SE,132,9.0,-999.0,28,-99.99,,,-99.99,,2013-03-29 18:32:00,
2013-03-29 12:42:00,61.0,28.0,29.96,South,174,2.0,-999.0,28,-99.99,,,-99.99,,2013-03-29 18:42:00,
2013-03-29 12:52:00,62.0,29.0,29.94,SE,130,10.0,-999.0,28,-99.99,,,-99.99,,2013-03-29 18:52:00,
2013-03-29 13:02:00,62.0,28.0,29.95,South,175,5.0,-999.0,27,-99.99,,,-99.99,,2013-03-29 19:02:00,
2013-03-29 13:12:00,64.0,28.0,29.95,SSW,203,4.0,-999.0,26,-99.99,,,-99.99,,2013-03-29 19:12:00,
2013-03-29 13:23:00,64.0,28.0,29.94,SE,145,3.0,-999.0,25,-99.99,,,-99.99,,2013-03-29 19:23:00,
2013-03-29 13:32:00,65.0,27.0,29.94,South,171,5.0,-999.0,23,-99.99,,,-99.99,,2013-03-29 19:32:00,
2013-03-29 13:42:00,66.0,25.0,29.91,ESE,109,10.0,-999.0,21,-99.99,,,-99.99,,2013-03-29 19:42:00,
2013-03-29 13:52:00,66.0,23.0,29.93,East,81,8.0,-999.0,19,-99.99,,,-99.99,,2013-03-29 19:52:00,
2013-03-29 14:02:00,67.0,25.0,29.92,SSE,154,4.0,-999.0,20,-99.99,,,-99.99,,2013-03-29 20:02:00,
2013-03-29 14:12:00,68.0,27.0,29.92,SE,125,7.0,-999.0,21,-99.99,,,-99.99,,2013-03-29 20:12:00,
2013-03-29 14:22:00,67.0,25.0,29.91,SE,143,3.0,-999.0,20,-99.99,,,-99.99,,2013-03-29 20:22:00,
2013-03-29 14:33:00,68.0,24.0,29.90,SE,141,6.0,-999.0,19,-99.99,,,-99.99,,2013-03-29 20:33:00,
2013-03-29 14:42:00,67.0,23.0,29.91,SSE,158,2.0,-999.0,19,-99.99,,,-99.99,,2013-03-29 20:42:00,
2013-03-29 14:52:00,67.0,25.0,29.91,WNW,282,3.0,-999.0,20,-99.99,,,-99.99,,2013-03-29 20:52:00,
2013-03-29 15:02:00,67.0,25.0,29.91,WNW,282,3.0,-999.0,20,-99.99,,,-99.99,,2013-03-29 21:02:00,
2013-03-29 15:12:00,66.0,24.0,29.89,North,0,0.0,-999.0,20,-99.99,,,-99.99,,2013-03-29 21:12:00,
2013-03-29 15:22:00,66.0,21.0,29.89,WNW,295,4.0,-999.0,18,-99.99,,,-99.99,,2013-03-29 21:22:00,
2013-03-29 15:33:00,65.0,23.0,29.89,NW,325,10.0,-999.0,20,-99.99,,,-99.99,,2013-03-29 21:33:00,
2013-03-29 15:42:00,64.0,23.0,29.91,NW,315,9.0,-999.0,21,-99.99,,,-99.99,,2013-03-29 21:42:00,
2013-03-29 15:53:00,65.0,21.0,29.91,NW,310,7.0,-999.0,19,-99.99,,,-99.99,,2013-03-29 21:53:00,
2013-03-29 16:03:00,64.0,23.0,29.89,SW,214,8.0,-999.0,21,-99.99,,,-99.99,,2013-03-29 22:03:00,
2013-03-29 16:12:00,64.0,23.0,29.91,NW,309,17.0,-999.0,21,-99.99,,,-99.99,,2013-03-29 22:12:00,
2013-03-29 16:22:00,64.0,24.0,29.91,NNW,336,14.0,-999.0,22,-99.99,,,-99.99,,2013-03-29 22:22:00,
2013-03-29 16:33:00,64.0,24.0,29.91,NNW,336,14.0,-999.0,22,-99.99,,,-99.99,,2013-03-29 22:33:00,
2013-03-29 16:42:00,64.0,25.0,29.90,West,268,15.0,-999.0,22,-99.99,,,-99.99,,2013-03-29 22:42:00,
2013-03-29 16:54:00,64.0,23.0,29.89,West,272,12.0,-999.0,21,-99.99,,,-99.99,,2013-03-29 22:54:00,
2013-03-29 17:03:00,64.0,22.0,29.89,West,264,10.0,-999.0,20,-99.99,,,-99.99,,2013-03-29 23:03:00,
2013-03-29 17:12:00,64.0,24.0,29.89,SW,228,7.0,-999.0,21,-99.99,,,-99.99,,2013-03-29 23:12:00,
2013-03-29 17:22:00,65.0,22.0,29.91,WSW,255,11.0,-999.0,19,-99.99,,,-99.99,,2013-03-29 23:22:00,
2013-03-29 17:32:00,64.0,22.0,29.90,WSW,248,9.0,-999.0,20,-99.99,,,-99.99,,2013-03-29 23:32:00,
2013-03-29 17:42:00,64.0,22.0,29.89,West,260,14.0,-999.0,20,-99.99,,,-99.99,,2013-03-29 23:42:00,
2013-03-29 17:52:00,63.0,23.0,29.89,West,277,12.0,-999.0,21,-99.99,,,-99.99,,2013-03-29 23:52:00,
2013-03-29 18:03:00,63.0,23.0,29.89,West,277,12.0,-999.0,21,-99.99,,,-99.99,,2013-03-30 00:03:00,
2013-03-29 18:12:00,63.0,24.0,29.91,NNW,336,9.0,-999.0,22,-99.99,,,-99.99,,2013-03-30 00:12:00,
2013-03-29 18:22:00,63.0,23.0,29.91,North,-999,10.0,-999.0,22,-99.99,,,-99.99,,2013-03-30 00:22:00,
2013-03-29 18:32:00,62.0,24.0,29.89,North,-999,7.0,-999.0,23,-99.99,,,-99.99,,2013-03-30 00:32:00,
2013-03-29 18:42:00,62.0,26.0,29.91,North,3,4.0,-999.0,25,-99.99,,,-99.99,,2013-03-30 00:42:00,
2013-03-29 18:52:00,61.0,26.0,29.90,NW,313,5.0,-999.0,26,-99.99,,,-99.99,,2013-03-30 00:52:00,
2013-03-29 19:02:00,61.0,25.0,29.89,WNW,296,3.0,-999.0,25,-99.99,,,-99.99,,2013-03-30 01:02:00,
2013-03-29 19:12:00,62.0,24.0,29.87,North,0,0.0,-999.0,24,-99.99,,,-99.99,,2013-03-30 01:12:00,
2013-03-29 19:22:00,61.0,26.0,29.89,South,181,4.0,-999.0,26,-99.99,,,-99.99,,2013-03-30 01:22:00,
2013-03-29 19:33:00,60.0,27.0,29.89,South,184,5.0,-999.0,28,-99.99,,,-99.99,,2013-03-30 01:33:00,
2013-03-29 19:43:00,57.0,29.0,29.91,SSE,155,6.0,-999.0,34,-99.99,,,-99.99,,2013-03-30 01:43:00,
2013-03-29 19:52:00,55.0,31.0,29.89,South,182,10.0,-999.0,39,-99.99,,,-99.99,,2013-03-30 01:52:00,
2013-03-29 20:03:00,55.0,31.0,29.89,South,182,10.0,-999.0,39,-99.99,,,-99.99,,2013-03-30 02:03:00,
2013-03-29 20:12:00,54.0,32.0,29.90,South,184,12.0,-999.0,44,-99.99,,,-99.99,,2013-03-30 02:12:00,
2013-03-29 20:22:00,53.0,33.0,29.90,South,175,12.0,-999.0,46,-99.99,,,-99.99,,2013-03-30 02:22:00,
2013-03-29 20:32:00,51.0,33.0,29.92,South,177,9.0,-999.0,50,-99.99,,,-99.99,,2013-03-30 02:32:00,
2013-03-29 20:42:00,51.0,33.0,29.92,South,188,10.0,-999.0,51,-99.99,,,-99.99,,2013-03-30 02:42:00,
2013-03-29 20:52:00,50.0,33.0,29.91,SSW,192,11.0,-999.0,52,-99.99,,,-99.99,,2013-03-30 02:52:00,
2013-03-29 21:03:00,50.0,34.0,29.93,SSW,193,12.0,-999.0,53,-99.99,,,-99.99,,2013-03-30 03:03:00,
2013-03-29 21:12:00,50.0,34.0,29.92,SSW,213,10.0,-999.0,54,-99.99,,,-99.99,,2013-03-30 03:12:00,
2013-03-29 21:22:00,50.0,34.0,29.94,SW,219,13.0,-999.0,53,-99.99,,,-99.99,,2013-03-30 03:22:00,
2013-03-29 21:33:00,50.0,33.0,29.95,West,274,5.0,-999.0,52,-99.99,,,-99.99,,2013-03-30 03:33:00,
2013-03-29 21:43:00,52.0,29.0,29.96,North,-999,9.0,-999.0,42,-99.99,,,-99.99,,2013-03-30 03:43:00,
2013-03-29 21:53:00,51.0,28.0,29.96,NNE,20,10.0,-999.0,41,-99.99,,,-99.99,,2013-03-30 03:53:00,
2013-03-29 22:02:00,51.0,27.0,29.96,NNE,20,9.0,-999.0,40,-99.99,,,-99.99,,2013-03-30 04:02:00,
2013-03-29 22:12:00,51.0,27.0,29.95,North,6,9.0,-999.0,39,-99.99,,,-99.99,,2013-03-30 04:12:00,
2013-03-29 22:23:00,50.0,26.0,29.98,North,2,10.0,-999.0,39,-99.99,,,-99.99,,2013-03-30 04:23:00,
2013-03-29 22:32:00,50.0,26.0,29.98,East,86,9.0,-999.0,40,-99.99,,,-99.99,,2013-03-30 04:32:00,
2013-03-29 22:43:00,50.0,26.0,29.98,North,-999,6.0,-999.0,39,-99.99,,,-99.99,,2013-03-30 04:43:00,
2013-03-29 22:52:00,50.0,26.0,29.99,North,-999,7.0,-999.0,39,-99.99,,,-99.99,,2013-03-30 04:52:00,
2013-03-29 23:02:00,49.0,25.0,29.97,East,86,7.0,-999.0,39,-99.99,,,-99.99,,2013-03-30 05:02:00,
2013-03-29 23:12:00,49.0,26.0,29.97,North,3,8.0,-999.0,40,-99.99,,,-99.99,,2013-03-30 05:12:00,
2013-03-29 23:22:00,49.0,26.0,29.96,NNE,13,7.0,-999.0,41,-99.99,,,-99.99,,2013-03-30 05:22:00,
2013-03-29 23:32:00,49.0,26.0,29.99,North,7,6.0,-999.0,41,-99.99,,,-99.99,,2013-03-30 05:32:00,
2013-03-29 23:42:00,49.0,27.0,29.97,North,-999,5.0,-999.0,42,-99.99,,,-99.99,,2013-03-30 05:42:00,
2013-03-29 23:52:00,49.0,26.0,29.98,North,-999,4.0,-999.0,40,-99.99,,,-99.99,,2013-03-30 05:52:00,